Time;durP1;ratioP1;P1;durP2;ratioP2;P2;SDS_P1;SDS_P2;PMS_P1;PMS_P2;Temp;Humidity;BMP_temperature;BMP_pressure;BME280_temperature;BME280_humidity;BME280_pressure;Samples;Min_cycle;Max_cycle;Signal;HPM_P1;HPM_P2
2022/12/18 00:02:25;;;;;;;46.88;29.10;;;-7.10;1.00;;;;;;5096571;28;20195;-77
2022/12/18 00:04:53;;;;;;;55.33;30.23;;;-7.10;1.00;;;;;;5096734;28;20192;-77
2022/12/18 00:07:21;;;;;;;45.70;29.67;;;-7.10;1.00;;;;;;5099085;27;20249;-77
2022/12/18 00:09:49;;;;;;;52.63;30.67;;;-7.10;1.00;;;;;;5092444;28;20631;-78
2022/12/18 00:12:19;;;;;;;49.95;30.23;;;-7.20;1.00;;;;;;5101798;28;20195;-78
2022/12/18 00:14:47;;;;;;;49.35;28.63;;;-7.20;1.00;;;;;;5093970;28;20195;-77
2022/12/18 00:17:15;;;;;;;52.13;30.98;;;-7.30;1.00;;;;;;5097113;27;20305;-75
2022/12/18 00:19:43;;;;;;;49.95;29.48;;;-7.30;1.00;;;;;;5098830;27;20248;-77
2022/12/18 00:22:11;;;;;;;55.45;28.75;;;-7.20;1.00;;;;;;5093718;27;20651;-76
2022/12/18 00:24:40;;;;;;;43.85;28.75;;;-7.10;1.00;;;;;;5090500;27;20605;-75
2022/12/18 00:27:08;;;;;;;48.65;29.20;;;-7.10;1.00;;;;;;5091414;28;20242;-80
2022/12/18 00:30:17;;;;;;;54.03;30.05;;;-7.10;1.00;;;;;;5089345;28;20203;-77
2022/12/18 00:32:50;;;;;;;44.50;27.08;;;-7.10;1.00;;;;;;5023058;28;20203;-77
2022/12/18 00:35:19;;;;;;;51.30;27.23;;;-7.20;1.00;;;;;;5040577;28;20303;-76
2022/12/18 00:37:47;;;;;;;48.70;28.10;;;-7.00;1.00;;;;;;5068218;28;20225;-77
2022/12/18 00:40:15;;;;;;;46.05;29.45;;;-7.10;1.00;;;;;;5097589;28;20910;-78
2022/12/18 00:42:57;;;;;;;45.67;29.17;;;-7.30;1.00;;;;;;5102869;27;20269;-76
2022/12/18 00:45:28;;;;;;;54.33;29.35;;;-7.20;1.00;;;;;;5097593;28;20225;-78
2022/12/18 00:47:57;;;;;;;49.70;28.95;;;-7.20;1.00;;;;;;5095806;27;20205;-75
2022/12/18 00:50:26;;;;;;;42.55;28.58;;;-7.20;1.00;;;;;;5101714;27;20199;-76
2022/12/18 00:52:55;;;;;;;46.80;27.85;;;-7.10;1.00;;;;;;5094346;28;20200;-74
2022/12/18 00:55:23;;;;;;;54.80;27.88;;;-7.00;1.00;;;;;;5094983;28;20220;-76
2022/12/18 00:57:52;;;;;;;42.95;27.50;;;-7.10;1.00;;;;;;5093323;27;20221;-75
2022/12/18 01:00:20;;;;;;;43.03;25.42;;;-7.20;1.00;;;;;;5095225;28;20238;-77
2022/12/18 01:02:50;;;;;;;44.65;25.85;;;-7.30;1.00;;;;;;5095891;27;20248;-77
2022/12/18 01:05:19;;;;;;;45.17;25.33;;;-7.30;1.00;;;;;;5092553;28;20222;-76
2022/12/18 01:07:47;;;;;;;42.38;27.73;;;-7.30;1.00;;;;;;5092945;28;20188;-75
2022/12/18 01:10:15;;;;;;;45.10;28.05;;;-7.30;1.00;;;;;;5098435;28;20408;-75
2022/12/18 01:12:43;;;;;;;37.33;23.50;;;-7.30;1.00;;;;;;5099311;28;20208;-74
2022/12/18 01:15:13;;;;;;;39.85;24.00;;;-7.30;1.00;;;;;;5093076;28;20596;-78
2022/12/18 01:17:42;;;;;;;41.55;24.95;;;-7.40;1.00;;;;;;5093128;28;20310;-77
2022/12/18 01:20:13;;;;;;;41.28;23.70;;;-7.30;1.00;;;;;;5094471;28;20199;-76
2022/12/18 01:22:41;;;;;;;39.92;26.10;;;-7.30;1.00;;;;;;5098200;27;20219;-76
2022/12/18 01:25:10;;;;;;;43.45;24.48;;;-7.30;1.00;;;;;;5092885;28;20223;-76
2022/12/18 01:27:38;;;;;;;34.80;23.98;;;-7.40;1.00;;;;;;5093662;27;20552;-76
2022/12/18 01:30:07;;;;;;;33.95;22.30;;;-7.50;1.00;;;;;;5096444;27;20199;-76
2022/12/18 01:32:35;;;;;;;31.02;20.15;;;-7.50;1.00;;;;;;5093244;28;20566;-75
2022/12/18 01:35:04;;;;;;;42.00;21.80;;;-7.40;1.00;;;;;;5086575;27;20227;-77
2022/12/18 01:37:33;;;;;;;24.85;16.23;;;-7.20;1.00;;;;;;5091977;28;20222;-77
2022/12/18 01:40:01;;;;;;;32.03;15.90;;;-6.80;1.00;;;;;;5092018;28;20707;-77
2022/12/18 01:42:30;;;;;;;28.15;15.05;;;-6.60;1.00;;;;;;5099439;28;20294;-77
2022/12/18 01:45:05;;;;;;;25.90;15.65;;;-6.30;1.00;;;;;;5094475;28;20199;-76
2022/12/18 01:47:37;;;;;;;31.65;16.58;;;-6.30;1.00;;;;;;5113997;27;20183;-76
2022/12/18 01:50:11;;;;;;;26.23;13.98;;;-6.10;4.50;;;;;;5102334;27;20191;-75
2022/12/18 01:52:43;;;;;;;28.30;16.17;;;-6.00;1.00;;;;;;5098944;27;20653;-78
2022/12/18 01:55:13;;;;;;;20.77;16.20;;;-5.90;1.00;;;;;;5089558;28;20748;-77
2022/12/18 01:57:42;;;;;;;25.02;16.38;;;-5.80;1.00;;;;;;5092637;28;20777;-77
2022/12/18 02:00:14;;;;;;;26.60;15.23;;;-5.70;1.00;;;;;;5095616;28;20195;-75
2022/12/18 02:02:43;;;;;;;24.92;15.90;;;-5.80;99.90;;;;;;5095909;28;20260;-78
2022/12/18 02:05:15;;;;;;;28.70;14.80;;;-5.80;45.60;;;;;;5098547;27;20215;-76
2022/12/18 02:07:57;;;;;;;25.35;15.75;;;-5.70;1.00;;;;;;5094598;28;20199;-78
2022/12/18 02:10:29;;;;;;;23.95;15.00;;;-5.60;1.00;;;;;;5093556;28;20192;-79
2022/12/18 02:13:09;;;;;;;23.77;15.40;;;-5.80;1.00;;;;;;5094718;28;20216;-77
2022/12/18 02:15:41;;;;;;;26.00;15.10;;;-5.70;1.00;;;;;;5100501;27;20231;-77
2022/12/18 02:18:13;;;;;;;32.03;16.08;;;-5.80;1.00;;;;;;5096066;28;20260;-76
2022/12/18 02:20:48;;;;;;;25.00;14.25;;;-5.90;99.90;;;;;;5102221;28;20197;-79
2022/12/18 02:23:29;;;;;;;22.77;14.20;;;-5.80;99.90;;;;;;5095297;28;20222;-80
2022/12/18 02:26:19;;;;;;;23.35;13.40;;;-5.40;3.80;;;;;;5094989;28;20247;-78
2022/12/18 02:28:53;;;;;;;30.52;15.43;;;-5.50;1.00;;;;;;5098118;27;20203;-78
2022/12/18 02:31:25;;;;;;;26.58;15.25;;;-5.70;1.00;;;;;;5098359;27;20227;-77
2022/12/18 02:33:57;;;;;;;28.23;14.50;;;-5.60;1.00;;;;;;5090022;28;20290;-77
2022/12/18 02:36:27;;;;;;;26.45;14.02;;;-5.60;1.00;;;;;;5093490;28;20242;-78
2022/12/18 02:38:57;;;;;;;30.48;18.10;;;-5.50;1.00;;;;;;5088830;28;20199;-76
2022/12/18 02:41:27;;;;;;;32.25;18.90;;;-5.60;99.90;;;;;;5096309;28;20187;-78
2022/12/18 02:43:58;;;;;;;34.45;19.63;;;-5.90;1.00;;;;;;5098326;28;20223;-79
2022/12/18 02:46:36;;;;;;;31.05;18.45;;;-6.10;1.00;;;;;;5094827;28;20910;-79
2022/12/18 02:49:20;;;;;;;31.65;16.75;;;-6.40;1.00;;;;;;5091326;28;20213;-77
2022/12/18 02:51:53;;;;;;;23.35;15.75;;;-6.40;1.00;;;;;;5090785;28;20209;-76
2022/12/18 02:54:31;;;;;;;24.02;14.82;;;-6.40;1.00;;;;;;5090141;28;20195;-75
2022/12/18 02:57:12;;;;;;;27.80;15.52;;;-6.30;42.10;;;;;;5096604;28;20234;-77
2022/12/18 02:59:47;;;;;;;27.83;16.20;;;-6.40;99.90;;;;;;5089276;28;20396;-78
2022/12/18 03:02:22;;;;;;;29.20;17.25;;;-6.30;99.90;;;;;;5089397;28;20248;-76
2022/12/18 03:04:59;;;;;;;23.25;14.57;;;-6.30;99.90;;;;;;5085471;28;20187;-76
2022/12/18 03:07:34;;;;;;;28.23;15.20;;;-6.40;99.90;;;;;;5089407;28;20256;-78
2022/12/18 03:10:03;;;;;;;22.55;13.68;;;-6.20;1.00;;;;;;5089641;28;20195;-78
2022/12/18 03:12:36;;;;;;;22.23;13.35;;;-6.30;99.90;;;;;;5093629;28;20714;-76
2022/12/18 03:15:09;;;;;;;16.42;11.27;;;-6.20;1.00;;;;;;5099065;28;20268;-76
2022/12/18 03:17:51;;;;;;;18.27;12.27;;;-6.10;1.00;;;;;;5096318;28;20376;-78
2022/12/18 03:20:22;;;;;;;17.25;11.05;;;-6.20;12.00;;;;;;5090045;28;20195;-76
2022/12/18 03:22:54;;;;;;;19.77;12.93;;;-6.20;1.00;;;;;;5093567;28;20195;-75
2022/12/18 03:25:23;;;;;;;20.42;12.45;;;-6.50;1.00;;;;;;5094839;28;20222;-76
2022/12/18 03:27:57;;;;;;;19.98;12.57;;;-6.50;1.00;;;;;;5100941;27;20635;-76
2022/12/18 03:30:27;;;;;;;21.77;13.40;;;-6.40;99.90;;;;;;5096248;27;20603;-76
2022/12/18 03:33:02;;;;;;;17.25;10.68;;;-6.40;99.90;;;;;;5099743;27;20202;-75
2022/12/18 03:35:34;;;;;;;16.25;11.07;;;-6.60;1.00;;;;;;5095864;28;20568;-76
2022/12/18 03:38:02;;;;;;;20.17;13.55;;;-6.70;1.00;;;;;;5095759;28;20210;-76
2022/12/18 03:40:40;;;;;;;20.05;11.57;;;-6.50;99.90;;;;;;5095763;28;20208;-77
2022/12/18 03:43:14;;;;;;;18.13;12.20;;;-6.60;1.00;;;;;;5113941;27;20214;-77
2022/12/18 03:45:48;;;;;;;19.92;12.43;;;-6.50;99.90;;;;;;5095244;28;20226;-77
2022/12/18 03:48:20;;;;;;;17.45;10.93;;;-6.60;99.90;;;;;;5093076;28;20589;-78
2022/12/18 03:50:53;;;;;;;22.60;12.57;;;-6.50;1.00;;;;;;5095965;27;20200;-79
2022/12/18 03:53:32;;;;;;;22.30;13.23;;;-6.50;45.20;;;;;;5097115;27;20199;-76
2022/12/18 03:56:01;;;;;;;22.35;13.32;;;-6.30;1.00;;;;;;5098076;28;20230;-75
2022/12/18 03:58:33;;;;;;;17.98;12.50;;;-6.30;99.90;;;;;;5098421;28;20223;-75
2022/12/18 04:01:06;;;;;;;19.77;10.05;;;-6.30;99.90;;;;;;5100736;28;20199;-76
2022/12/18 04:03:36;;;;;;;23.90;12.20;;;-6.50;99.90;;;;;;5097832;28;20191;-76
2022/12/18 04:06:06;;;;;;;17.50;12.13;;;-6.40;99.90;;;;;;5097588;27;20587;-77
2022/12/18 04:08:35;;;;;;;22.50;12.70;;;-6.30;99.90;;;;;;5098354;27;20215;-75
2022/12/18 04:11:04;;;;;;;16.00;11.63;;;-6.40;99.90;;;;;;5094194;28;20219;-77
2022/12/18 04:13:37;;;;;;;21.88;12.77;;;-6.30;99.90;;;;;;5095195;28;20196;-78
2022/12/18 04:16:06;;;;;;;21.17;12.25;;;-6.30;99.90;;;;;;5099482;28;20226;-77
2022/12/18 04:18:34;;;;;;;20.55;14.35;;;-6.50;99.90;;;;;;5098273;28;20216;-78
2022/12/18 04:21:03;;;;;;;20.63;13.23;;;-6.40;99.90;;;;;;5097865;28;20199;-78
2022/12/18 04:23:31;;;;;;;17.42;12.40;;;-6.50;99.90;;;;;;5097156;28;20274;-77
2022/12/18 04:25:59;;;;;;;18.20;11.65;;;-6.30;1.00;;;;;;5101129;28;20222;-78
2022/12/18 04:28:27;;;;;;;15.07;10.77;;;-6.40;99.90;;;;;;5099663;27;20190;-78
2022/12/18 04:30:56;;;;;;;19.02;12.48;;;-6.50;1.00;;;;;;5103368;27;20191;-76
2022/12/18 04:33:25;;;;;;;20.67;11.73;;;-6.40;90.40;;;;;;5102385;28;20195;-77
2022/12/18 04:35:53;;;;;;;21.55;11.95;;;-6.40;1.00;;;;;;5098174;28;20247;-79
2022/12/18 04:38:21;;;;;;;18.73;11.40;;;-6.40;1.00;;;;;;5093334;28;20212;-78
2022/12/18 04:40:49;;;;;;;19.05;12.88;;;-6.40;1.00;;;;;;5093723;28;20559;-78
2022/12/18 04:43:17;;;;;;;21.58;12.25;;;-6.50;1.00;;;;;;5090788;28;20241;-75
2022/12/18 04:45:45;;;;;;;20.58;12.55;;;-6.50;99.90;;;;;;5097224;27;20967;-75
2022/12/18 04:48:15;;;;;;;22.27;12.02;;;-6.70;99.90;;;;;;5093677;28;20196;-75
2022/12/18 04:50:43;;;;;;;19.70;12.20;;;-6.70;1.00;;;;;;5099997;28;20610;-75
2022/12/18 04:53:11;;;;;;;17.90;11.70;;;-6.80;99.90;;;;;;5098829;27;20203;-75
2022/12/18 04:55:39;;;;;;;22.92;12.88;;;-6.70;99.90;;;;;;5100466;27;20309;-77
2022/12/18 04:58:07;;;;;;;24.00;13.35;;;-6.60;99.90;;;;;;5095389;28;20348;-76
2022/12/18 05:00:36;;;;;;;21.58;12.43;;;-6.80;1.00;;;;;;5098265;27;20224;-78
2022/12/18 05:03:04;;;;;;;22.50;13.13;;;-6.50;1.00;;;;;;5087223;28;20727;-78
2022/12/18 05:05:35;;;;;;;23.45;12.68;;;-6.60;99.90;;;;;;5082293;28;20238;-76
2022/12/18 05:08:04;;;;;;;19.95;12.18;;;-6.60;1.00;;;;;;5084702;27;20196;-77
2022/12/18 05:10:32;;;;;;;19.15;11.20;;;-6.80;99.90;;;;;;5087580;28;20187;-77
2022/12/18 05:13:05;;;;;;;20.05;12.27;;;-6.70;54.40;;;;;;5087123;28;20232;-78
2022/12/18 05:15:34;;;;;;;20.55;12.77;;;-6.60;1.00;;;;;;5086590;28;20643;-76
2022/12/18 05:18:04;;;;;;;19.60;11.50;;;-6.60;1.00;;;;;;5086383;28;21017;-77
2022/12/18 05:20:33;;;;;;;17.95;11.90;;;-6.60;1.00;;;;;;5086598;28;20210;-77
2022/12/18 05:23:02;;;;;;;22.35;13.05;;;-6.50;99.90;;;;;;5084803;28;20787;-77
2022/12/18 05:25:30;;;;;;;19.05;10.13;;;-6.60;99.90;;;;;;5088252;28;21332;-78
2022/12/18 05:27:58;;;;;;;22.48;12.07;;;-6.70;99.90;;;;;;5091272;28;20200;-76
2022/12/18 05:30:27;;;;;;;16.73;10.63;;;-6.70;1.00;;;;;;5090960;28;20225;-77
2022/12/18 05:32:55;;;;;;;24.20;15.65;;;-6.50;1.00;;;;;;5086825;27;20926;-73
2022/12/18 05:35:23;;;;;;;22.05;13.77;;;-6.50;1.00;;;;;;5083705;28;20276;-74
2022/12/18 05:37:53;;;;;;;21.55;11.85;;;-6.70;99.90;;;;;;5091092;27;20223;-76
2022/12/18 05:40:21;;;;;;;20.70;11.85;;;-6.70;1.00;;;;;;5090364;27;21167;-76
2022/12/18 05:42:49;;;;;;;19.73;11.48;;;-6.70;1.00;;;;;;5089139;28;20183;-75
2022/12/18 05:45:17;;;;;;;20.65;11.10;;;-6.70;99.90;;;;;;5087643;28;20782;-76
2022/12/18 05:47:45;;;;;;;18.92;12.93;;;-6.70;99.90;;;;;;5097989;28;20211;-76
2022/12/18 05:50:13;;;;;;;23.80;13.98;;;-6.70;1.00;;;;;;5092171;28;20222;-76
2022/12/18 05:52:41;;;;;;;21.88;11.73;;;-6.70;1.00;;;;;;5091488;28;20308;-75
2022/12/18 05:55:11;;;;;;;23.65;11.52;;;-6.70;1.00;;;;;;5092103;28;20215;-75
2022/12/18 05:57:39;;;;;;;20.02;11.32;;;-6.60;1.00;;;;;;5090998;28;20199;-75
2022/12/18 06:00:09;;;;;;;19.90;11.55;;;-6.50;95.70;;;;;;5095379;28;20227;-75
2022/12/18 06:02:37;;;;;;;19.48;12.32;;;-6.50;1.00;;;;;;5093715;28;20218;-76
2022/12/18 06:05:06;;;;;;;26.65;14.73;;;-6.50;1.00;;;;;;5096998;28;20658;-74
2022/12/18 06:07:34;;;;;;;19.95;11.52;;;-6.30;99.90;;;;;;5095039;28;20196;-76
2022/12/18 06:10:03;;;;;;;23.98;12.55;;;-6.40;99.90;;;;;;5096219;28;20778;-76
2022/12/18 06:12:33;;;;;;;20.40;11.93;;;-6.30;1.00;;;;;;5094360;28;20214;-72
2022/12/18 06:15:01;;;;;;;21.48;12.05;;;-6.40;99.90;;;;;;5096319;28;20322;-77
2022/12/18 06:17:30;;;;;;;19.98;11.73;;;-6.40;1.00;;;;;;5090398;28;20203;-76
2022/12/18 06:19:58;;;;;;;20.48;12.77;;;-6.30;99.90;;;;;;5092438;28;20838;-75
2022/12/18 06:22:27;;;;;;;24.60;12.20;;;-6.30;99.90;;;;;;5089278;27;20199;-76
2022/12/18 06:24:55;;;;;;;22.33;11.00;;;-6.10;1.00;;;;;;5091662;28;20825;-78
2022/12/18 06:27:23;;;;;;;22.95;12.82;;;-6.10;99.90;;;;;;5093624;28;20601;-75
2022/12/18 06:29:53;;;;;;;21.40;13.70;;;-6.20;1.00;;;;;;5094687;28;20253;-76
2022/12/18 06:32:21;;;;;;;22.13;13.70;;;-6.20;99.90;;;;;;5094823;27;20214;-77
2022/12/18 06:34:49;;;;;;;20.27;11.07;;;-6.30;99.90;;;;;;5088299;28;20234;-75
2022/12/18 06:37:18;;;;;;;21.90;12.30;;;-6.30;1.00;;;;;;5092472;28;20202;-77
2022/12/18 06:39:46;;;;;;;26.27;12.30;;;-6.20;99.90;;;;;;5092981;28;20214;-77
2022/12/18 06:42:14;;;;;;;23.70;12.90;;;-6.30;99.90;;;;;;5091961;28;20230;-77
2022/12/18 06:44:43;;;;;;;26.10;13.25;;;-6.30;1.00;;;;;;5088025;28;20686;-75
2022/12/18 06:47:12;;;;;;;22.52;13.07;;;-6.40;99.90;;;;;;5093647;28;20929;-75
2022/12/18 06:49:41;;;;;;;20.70;13.23;;;-6.30;99.90;;;;;;5094304;28;20279;-76
2022/12/18 06:52:09;;;;;;;22.88;13.43;;;-6.30;99.90;;;;;;5095732;28;20204;-76
2022/12/18 06:54:37;;;;;;;23.17;11.55;;;-6.30;99.90;;;;;;5090614;28;20203;-75
2022/12/18 06:57:05;;;;;;;24.50;12.50;;;-6.30;99.90;;;;;;5089598;28;20290;-75
2022/12/18 06:59:34;;;;;;;19.98;12.98;;;-6.20;99.90;;;;;;5091806;28;20776;-75
2022/12/18 07:02:02;;;;;;;23.10;13.60;;;-6.20;99.90;;;;;;5097945;28;20559;-76
2022/12/18 07:04:32;;;;;;;26.63;14.57;;;-6.10;99.90;;;;;;5096977;27;20199;-75
2022/12/18 07:07:00;;;;;;;21.55;14.13;;;-6.10;99.90;;;;;;5094396;28;20222;-75
2022/12/18 07:09:28;;;;;;;23.00;12.55;;;-6.00;1.00;;;;;;5105382;28;20183;-77
2022/12/18 07:11:56;;;;;;;23.90;13.27;;;-6.20;99.90;;;;;;5098957;28;20191;-76
2022/12/18 07:14:25;;;;;;;29.95;14.35;;;-6.00;1.00;;;;;;5100690;28;20286;-75
2022/12/18 07:16:53;;;;;;;20.63;12.57;;;-6.20;99.90;;;;;;5102866;28;20154;-77
2022/12/18 07:19:21;;;;;;;24.02;14.48;;;-6.10;1.00;;;;;;5104463;27;20210;-79
2022/12/18 07:21:52;;;;;;;23.20;13.85;;;-6.20;1.00;;;;;;5096221;27;20210;-78
2022/12/18 07:24:20;;;;;;;26.10;17.77;;;-6.10;99.90;;;;;;5092958;28;20428;-78
2022/12/18 07:26:49;;;;;;;28.20;15.90;;;-6.10;99.90;;;;;;5104120;28;20465;-80
2022/12/18 07:29:17;;;;;;;21.48;13.48;;;-5.90;99.90;;;;;;5098758;28;20202;-79
2022/12/18 07:31:45;;;;;;;30.52;18.08;;;-5.90;1.00;;;;;;5103703;28;20444;-79
2022/12/18 07:34:14;;;;;;;23.65;15.00;;;-5.70;1.00;;;;;;5103511;27;20208;-79
2022/12/18 07:36:43;;;;;;;24.67;13.50;;;-5.60;1.00;;;;;;5104115;28;20227;-79
2022/12/18 07:39:13;;;;;;;20.08;12.57;;;-5.60;1.00;;;;;;5093493;28;20241;-79
2022/12/18 07:41:45;;;;;;;26.77;14.40;;;-5.80;1.00;;;;;;5104912;27;20829;-79
2022/12/18 07:44:15;;;;;;;18.70;12.25;;;-5.70;1.00;;;;;;5096938;28;20245;-79
2022/12/18 07:46:43;;;;;;;21.38;15.05;;;-5.70;1.00;;;;;;5105158;28;20693;-79
2022/12/18 07:49:12;;;;;;;29.50;14.38;;;-5.70;1.00;;;;;;5101185;27;20230;-78
2022/12/18 07:51:40;;;;;;;25.75;15.38;;;-5.70;50.00;;;;;;5086825;28;20340;-79
2022/12/18 07:54:08;;;;;;;23.92;14.75;;;-5.70;99.90;;;;;;5098083;28;20196;-79
2022/12/18 07:56:37;;;;;;;27.30;16.13;;;-5.70;99.90;;;;;;5095675;27;20309;-79
2022/12/18 07:59:05;;;;;;;26.42;16.02;;;-5.60;99.90;;;;;;5093350;28;20211;-79
2022/12/18 08:01:34;;;;;;;23.63;12.88;;;-5.60;99.80;;;;;;5101795;28;20694;-80
2022/12/18 08:04:03;;;;;;;20.92;13.75;;;-5.50;82.50;;;;;;5095419;28;20204;-77
2022/12/18 08:06:31;;;;;;;27.63;16.15;;;-5.30;40.60;;;;;;5094577;28;20297;-77
2022/12/18 08:08:59;;;;;;;23.38;14.50;;;-5.20;11.30;;;;;;5094760;28;20223;-79
2022/12/18 08:11:29;;;;;;;30.45;15.50;;;-5.20;1.00;;;;;;5094974;27;20201;-78
2022/12/18 08:13:59;;;;;;;24.40;13.60;;;-5.20;93.40;;;;;;5099850;28;20198;-78
2022/12/18 08:16:27;;;;;;;22.33;13.95;;;-5.20;99.90;;;;;;5101738;28;20219;-79
2022/12/18 08:18:56;;;;;;;30.45;17.15;;;-5.00;99.90;;;;;;5096819;28;20234;-77
2022/12/18 08:21:26;;;;;;;24.48;15.00;;;-4.90;99.90;;;;;;5109586;27;20215;-77
2022/12/18 08:23:57;;;;;;;27.17;16.05;;;-4.70;1.00;;;;;;5097911;28;20212;-78
2022/12/18 08:26:27;;;;;;;25.83;14.70;;;-4.60;1.00;;;;;;5098803;28;20216;-77
2022/12/18 08:28:56;;;;;;;22.90;15.73;;;-4.60;1.00;;;;;;5098380;28;20195;-78
2022/12/18 08:31:27;;;;;;;27.70;15.32;;;-4.60;1.00;;;;;;5098327;28;20200;-78
2022/12/18 08:33:56;;;;;;;29.83;16.67;;;-4.50;1.00;;;;;;5096848;28;20662;-76
2022/12/18 08:36:25;;;;;;;24.55;14.45;;;-4.40;1.00;;;;;;5093469;28;20327;-77
2022/12/18 08:38:54;;;;;;;26.65;15.35;;;-4.40;1.00;;;;;;5098669;28;20223;-78
2022/12/18 08:41:23;;;;;;;20.73;14.68;;;-4.40;88.50;;;;;;5097445;28;20274;-77
2022/12/18 08:46:40;;;;;;;24.65;15.27;;;-4.30;1.00;;;;;;5098435;27;20218;-76
2022/12/18 08:49:09;;;;;;;28.30;15.85;;;-4.20;1.00;;;;;;5096884;28;20609;-77
2022/12/18 08:51:38;;;;;;;25.10;14.65;;;-4.30;7.20;;;;;;5099072;28;20610;-77
2022/12/18 08:54:07;;;;;;;31.35;16.25;;;-4.40;99.90;;;;;;5102180;27;20269;-77
2022/12/18 08:56:35;;;;;;;20.45;13.25;;;-4.30;1.00;;;;;;5111834;28;20258;-78
2022/12/18 08:59:05;;;;;;;34.75;16.52;;;-4.10;99.90;;;;;;5108235;27;20211;-79
2022/12/18 09:01:33;;;;;;;25.63;15.05;;;-4.00;99.90;;;;;;5093721;28;20211;-77
2022/12/18 09:04:04;;;;;;;23.90;13.65;;;-3.80;1.00;;;;;;5100194;28;20242;-79
2022/12/18 09:06:34;;;;;;;25.73;14.77;;;-3.80;1.00;;;;;;5103030;27;20227;-78
2022/12/18 09:09:03;;;;;;;28.63;15.57;;;-3.80;1.00;;;;;;5105244;27;20209;-78
2022/12/18 09:11:33;;;;;;;24.25;15.55;;;-3.70;99.90;;;;;;5097575;28;20197;-77
2022/12/18 09:14:02;;;;;;;27.50;16.23;;;-3.70;99.90;;;;;;5092510;28;20506;-77
2022/12/18 09:16:31;;;;;;;26.73;16.70;;;-3.60;99.90;;;;;;5094561;28;20474;-76
2022/12/18 09:19:00;;;;;;;24.38;14.68;;;-3.40;48.30;;;;;;5097348;28;20692;-79
2022/12/18 09:21:31;;;;;;;24.15;15.70;;;-3.30;99.90;;;;;;5095583;27;20295;-78
2022/12/18 09:24:04;;;;;;;24.15;13.02;;;-3.20;99.90;;;;;;5099093;27;20202;-78
2022/12/18 09:26:36;;;;;;;22.65;13.65;;;-3.20;1.00;;;;;;5095613;28;20225;-77
2022/12/18 09:29:06;;;;;;;25.20;14.35;;;-3.20;1.00;;;;;;5099126;28;20293;-79
2022/12/18 09:31:35;;;;;;;23.75;13.75;;;-2.90;1.00;;;;;;5100019;28;20212;-79
2022/12/18 09:34:06;;;;;;;25.20;13.25;;;-2.80;24.40;;;;;;5099307;28;20212;-79
2022/12/18 09:36:36;;;;;;;32.17;15.80;;;-2.60;99.90;;;;;;5096674;27;20245;-78
2022/12/18 09:39:04;;;;;;;30.23;15.52;;;-2.40;99.90;;;;;;5096680;28;20209;-79
2022/12/18 09:41:44;;;;;;;25.73;14.27;;;-2.40;99.90;;;;;;5095106;28;20770;-79
2022/12/18 09:44:23;;;;;;;20.10;13.32;;;-2.30;99.90;;;;;;5092321;27;20200;-77
2022/12/18 09:46:59;;;;;;;22.75;12.70;;;-2.20;99.90;;;;;;5092377;28;20225;-78
2022/12/18 09:49:31;;;;;;;22.55;13.57;;;-2.00;12.60;;;;;;5098220;28;20591;-78
2022/12/18 09:52:05;;;;;;;27.73;14.45;;;-1.90;10.70;;;;;;5095442;28;20532;-78
2022/12/18 09:54:40;;;;;;;22.27;13.07;;;-1.60;1.00;;;;;;5095322;27;20191;-78
2022/12/18 09:57:14;;;;;;;24.90;14.45;;;-1.40;1.00;;;;;;5093300;28;21059;-78
2022/12/18 09:59:47;;;;;;;21.70;13.00;;;-1.00;1.00;;;;;;5096328;28;20297;-78
2022/12/18 10:02:18;;;;;;;24.42;16.02;;;-0.70;1.00;;;;;;5096834;28;20445;-79
2022/12/18 10:04:53;;;;;;;28.33;17.33;;;-0.50;1.00;;;;;;5094547;28;20455;-78
2022/12/18 10:07:33;;;;;;;26.85;15.52;;;-0.50;99.90;;;;;;5094609;28;20285;-78
2022/12/18 10:10:07;;;;;;;28.42;17.88;;;-0.10;1.00;;;;;;5093278;28;20446;-79
2022/12/18 10:12:43;;;;;;;26.83;17.73;;;0.20;99.90;;;;;;5094486;28;20440;-79
2022/12/18 10:15:20;;;;;;;22.17;15.60;;;0.10;99.90;;;;;;5096704;28;20217;-78
2022/12/18 10:17:57;;;;;;;25.60;15.90;;;0.50;99.90;;;;;;5093803;28;20458;-79
2022/12/18 10:20:32;;;;;;;26.63;17.45;;;0.40;99.90;;;;;;5096326;27;20517;-76
2022/12/18 10:23:06;;;;;;;25.50;15.18;;;0.50;99.90;;;;;;5099341;28;20201;-78
2022/12/18 10:25:41;;;;;;;26.50;17.30;;;0.60;99.90;;;;;;5091772;28;20444;-76
2022/12/18 10:28:13;;;;;;;25.65;17.52;;;0.50;99.90;;;;;;5095771;28;20447;-78
2022/12/18 10:30:42;;;;;;;26.17;14.05;;;0.70;99.90;;;;;;5093872;28;20553;-78
2022/12/18 10:33:13;;;;;;;25.73;16.92;;;0.80;99.90;;;;;;5097087;28;20931;-78
2022/12/18 10:35:43;;;;;;;25.43;17.63;;;1.10;99.90;;;;;;5094495;27;20593;-78
2022/12/18 10:38:25;;;;;;;26.83;18.23;;;1.20;99.90;;;;;;5092868;27;20444;-77
2022/12/18 10:40:55;;;;;;;25.70;17.27;;;1.00;99.90;;;;;;5095354;28;20870;-77
2022/12/18 10:43:26;;;;;;;22.17;14.82;;;1.40;99.90;;;;;;5091331;28;20183;-78
2022/12/18 10:46:14;;;;;;;23.92;16.13;;;1.50;99.90;;;;;;5093270;28;20450;-77
2022/12/18 10:48:52;;;;;;;20.85;12.50;;;1.40;99.90;;;;;;5094571;28;20199;-78
2022/12/18 10:51:23;;;;;;;22.67;13.57;;;1.00;99.90;;;;;;5100757;28;20255;-79
2022/12/18 10:54:00;;;;;;;23.73;13.10;;;1.00;99.90;;;;;;5099620;28;20203;-77
2022/12/18 10:56:31;;;;;;;25.70;17.67;;;1.10;99.90;;;;;;5095221;28;20450;-77
2022/12/18 10:59:03;;;;;;;24.40;13.98;;;1.10;99.90;;;;;;5105932;27;20266;-79
2022/12/18 11:01:48;;;;;;;26.98;14.45;;;1.40;99.90;;;;;;5092282;28;20261;-78
2022/12/18 11:04:20;;;;;;;16.90;12.30;;;1.10;99.90;;;;;;5095409;28;20192;-76
2022/12/18 11:06:59;;;;;;;25.45;13.30;;;1.50;99.90;;;;;;5089584;28;20239;-77
2022/12/18 11:09:32;;;;;;;17.45;10.70;;;1.30;99.90;;;;;;5095612;28;20209;-77
2022/12/18 11:12:03;;;;;;;23.20;11.38;;;1.30;99.90;;;;;;5091881;28;20192;-77
2022/12/18 11:14:34;;;;;;;24.30;13.55;;;1.70;99.90;;;;;;5092729;28;20445;-77
2022/12/18 11:17:03;;;;;;;20.93;14.00;;;1.50;99.90;;;;;;5095035;28;20439;-77
2022/12/18 11:19:55;;;;;;;20.48;13.35;;;1.60;99.90;;;;;;5091814;28;21216;-77
2022/12/18 11:22:27;;;;;;;25.48;15.73;;;1.60;99.90;;;;;;5090794;28;20630;-78
2022/12/18 11:25:00;;;;;;;22.85;14.10;;;1.90;99.90;;;;;;5093141;28;20225;-78
2022/12/18 11:27:54;;;;;;;21.65;11.02;;;1.60;99.90;;;;;;5094641;28;20207;-77
2022/12/18 11:30:26;;;;;;;22.83;13.95;;;1.10;99.90;;;;;;5091406;28;20226;-77
2022/12/18 11:33:00;;;;;;;19.80;11.07;;;0.90;99.90;;;;;;5089530;28;20208;-76
2022/12/18 11:35:42;;;;;;;22.77;12.55;;;0.90;99.90;;;;;;5094246;28;20216;-78
2022/12/18 11:38:25;;;;;;;19.92;12.13;;;0.80;99.90;;;;;;5094216;28;20219;-77
2022/12/18 11:41:00;;;;;;;31.92;14.75;;;0.50;99.90;;;;;;5095275;28;20198;-77
2022/12/18 11:43:32;;;;;;;23.83;13.45;;;0.50;99.90;;;;;;5091620;28;20211;-77
2022/12/18 11:46:05;;;;;;;28.10;12.85;;;0.80;99.90;;;;;;5096881;28;20579;-77
2022/12/18 11:48:38;;;;;;;25.45;13.25;;;0.70;99.90;;;;;;5099303;28;20262;-77
2022/12/18 11:51:15;;;;;;;26.77;15.05;;;0.70;99.90;;;;;;5106458;27;20248;-77
2022/12/18 11:53:44;;;;;;;24.60;14.20;;;0.80;99.90;;;;;;5093847;28;20183;-78
2022/12/18 11:56:30;;;;;;;24.50;12.57;;;0.70;99.90;;;;;;5097418;28;20215;-78
2022/12/18 11:59:13;;;;;;;22.35;12.75;;;0.70;99.90;;;;;;5099403;28;20317;-77
2022/12/18 12:01:52;;;;;;;27.50;14.10;;;0.60;99.90;;;;;;5097303;28;20281;-78
2022/12/18 12:04:47;;;;;;;22.70;12.23;;;0.40;99.90;;;;;;5098560;27;20233;-77
2022/12/18 12:07:28;;;;;;;24.88;13.85;;;0.40;99.90;;;;;;5087364;28;20280;-77
2022/12/18 12:10:10;;;;;;;29.02;12.77;;;0.70;99.90;;;;;;5097989;27;20795;-77
2022/12/18 12:13:01;;;;;;;28.15;13.93;;;0.50;99.90;;;;;;5091806;27;20699;-77
2022/12/18 12:15:41;;;;;;;22.40;12.82;;;0.50;99.90;;;;;;5096637;28;20216;-76
2022/12/18 12:18:22;;;;;;;27.10;13.48;;;0.10;99.90;;;;;;5089351;28;20963;-78
2022/12/18 12:21:00;;;;;;;26.60;14.90;;;0.30;99.90;;;;;;5092611;28;20191;-77
2022/12/18 12:23:42;;;;;;;25.90;13.93;;;0.30;99.90;;;;;;5089278;28;20215;-77
2022/12/18 12:26:19;;;;;;;21.27;11.48;;;0.30;99.90;;;;;;5095005;28;20215;-79
2022/12/18 12:29:11;;;;;;;26.65;14.55;;;0.10;99.90;;;;;;5094555;28;20200;-76
2022/12/18 12:32:03;;;;;;;23.33;12.27;;;0.40;99.90;;;;;;5098491;28;20537;-76
2022/12/18 12:34:43;;;;;;;23.50;12.75;;;0.00;99.90;;;;;;5101401;27;20203;-77
2022/12/18 12:37:26;;;;;;;25.63;14.63;;;0.10;99.90;;;;;;5095780;28;20795;-78
2022/12/18 12:39:57;;;;;;;22.92;12.23;;;-0.10;1.00;;;;;;5091475;28;20252;-78
2022/12/18 12:45:23;;;;;;;20.63;13.07;;;-0.20;1.00;;;;;;5096739;28;20211;-76
2022/12/18 12:47:53;;;;;;;27.00;13.60;;;-0.10;1.00;;;;;;5096683;28;20205;-76
2022/12/18 12:50:23;;;;;;;25.30;14.32;;;0.00;1.00;;;;;;5095958;28;20208;-77
2022/12/18 12:52:54;;;;;;;27.67;14.80;;;0.10;1.00;;;;;;5098840;28;20191;-77
2022/12/18 12:55:25;;;;;;;29.35;15.55;;;-0.10;1.00;;;;;;5097968;28;20850;-76
2022/12/18 12:58:03;;;;;;;29.70;15.02;;;-0.20;1.00;;;;;;5094044;28;20203;-78
2022/12/18 13:00:40;;;;;;;24.02;15.25;;;-0.20;1.00;;;;;;5096585;28;20205;-77
2022/12/18 13:03:16;;;;;;;26.83;16.65;;;-0.10;1.00;;;;;;5093079;28;20225;-78